Time;durP1;ratioP1;P1;durP2;ratioP2;P2;SDS_P1;SDS_P2;PMS_P1;PMS_P2;Temp;Humidity;BMP_temperature;BMP_pressure;BME280_temperature;BME280_humidity;BME280_pressure;Samples;Min_cycle;Max_cycle;Signal;HPM_P1;HPM_P2
2022/06/29 00:02:01;;;;;;;5.13;2.53;;;16.70;99.90;;;;;;5002019;28;20052;-84
2022/06/29 00:04:26;;;;;;;5.10;2.90;;;16.60;99.90;;;;;;5003936;28;20112;-85
2022/06/29 00:06:55;;;;;;;5.78;2.63;;;16.60;99.90;;;;;;4985933;28;20391;-84
2022/06/29 00:09:20;;;;;;;3.72;2.70;;;16.60;99.90;;;;;;5003527;28;20041;-84
2022/06/29 00:11:48;;;;;;;4.97;2.42;;;16.60;99.90;;;;;;5009028;28;20142;-85
2022/06/29 00:14:19;;;;;;;3.67;3.00;;;16.50;99.90;;;;;;5020188;28;20046;-84
2022/06/29 00:16:45;;;;;;;5.13;2.95;;;16.50;99.90;;;;;;5001772;28;20591;-85
2022/06/29 00:19:13;;;;;;;5.38;3.00;;;16.50;99.90;;;;;;5005416;28;20050;-84
2022/06/29 00:21:39;;;;;;;5.57;2.95;;;15.80;99.90;;;;;;5004600;28;20124;-84
2022/06/29 00:24:05;;;;;;;4.40;2.65;;;16.40;99.90;;;;;;4988027;28;20148;-84
2022/06/29 00:26:31;;;;;;;5.65;3.25;;;16.20;99.90;;;;;;5004742;28;20052;-85
2022/06/29 00:28:57;;;;;;;6.38;3.25;;;16.30;99.90;;;;;;4987434;28;20033;-84
2022/06/29 00:31:23;;;;;;;7.47;3.05;;;16.30;99.90;;;;;;5005409;28;20086;-84
2022/06/29 00:33:49;;;;;;;5.15;2.92;;;16.20;99.90;;;;;;5020409;28;20043;-84
2022/06/29 00:36:14;;;;;;;4.25;3.08;;;16.20;99.90;;;;;;4993292;28;20061;-84
2022/06/29 00:38:40;;;;;;;3.95;3.30;;;16.20;99.90;;;;;;5005899;28;20044;-84
2022/06/29 00:41:08;;;;;;;4.85;2.67;;;16.20;99.90;;;;;;4988428;28;20553;-85
2022/06/29 00:43:43;;;;;;;4.10;2.88;;;16.10;99.90;;;;;;4989243;28;20057;-84
2022/06/29 00:46:09;;;;;;;5.57;2.72;;;16.10;99.90;;;;;;5006586;28;20050;-84
2022/06/29 00:48:36;;;;;;;3.35;2.88;;;16.00;99.90;;;;;;5020194;28;20402;-85
2022/06/29 00:51:03;;;;;;;4.70;2.75;;;16.00;99.90;;;;;;5015986;28;20584;-84
2022/06/29 00:53:40;;;;;;;5.82;3.35;;;16.00;99.90;;;;;;5006573;28;20100;-84
2022/06/29 00:56:09;;;;;;;4.55;2.67;;;15.90;99.90;;;;;;5006551;28;20057;-83
2022/06/29 00:58:35;;;;;;;4.38;3.00;;;16.30;99.90;;;;;;5019132;28;20077;-84
2022/06/29 01:01:06;;;;;;;5.63;2.97;;;15.90;99.90;;;;;;5018687;28;20420;-84
2022/06/29 01:03:33;;;;;;;4.53;2.88;;;15.90;99.90;;;;;;5020257;28;20057;-84
2022/06/29 01:06:00;;;;;;;3.47;2.88;;;15.80;99.90;;;;;;5003061;28;20491;-83
2022/06/29 01:08:26;;;;;;;5.90;3.20;;;15.80;99.90;;;;;;5019726;28;20439;-84
2022/06/29 01:10:52;;;;;;;6.78;3.30;;;15.80;99.90;;;;;;4992652;28;20041;-84
2022/06/29 01:13:18;;;;;;;3.63;2.47;;;15.80;99.90;;;;;;5002185;28;20107;-84
2022/06/29 01:15:43;;;;;;;5.22;3.50;;;15.70;99.90;;;;;;4992194;28;20051;-83
2022/06/29 01:18:09;;;;;;;5.72;3.63;;;15.70;99.90;;;;;;5000963;28;20380;-85
2022/06/29 01:20:38;;;;;;;4.63;3.03;;;15.70;99.90;;;;;;5017931;28;20069;-85
2022/06/29 01:23:06;;;;;;;6.90;2.72;;;15.70;99.90;;;;;;5002416;28;20434;-84
2022/06/29 01:25:31;;;;;;;4.35;3.00;;;15.70;99.90;;;;;;4984737;28;20196;-84
2022/06/29 01:27:58;;;;;;;7.53;2.90;;;15.70;99.90;;;;;;5001616;28;20171;-84
2022/06/29 01:30:24;;;;;;;5.28;3.13;;;15.60;99.90;;;;;;5001858;28;20064;-86
2022/06/29 01:32:50;;;;;;;5.30;3.00;;;15.60;99.90;;;;;;5035837;28;20048;-84
2022/06/29 01:35:22;;;;;;;6.25;3.40;;;15.60;99.90;;;;;;4973087;28;20057;-84
2022/06/29 01:37:48;;;;;;;4.00;2.88;;;15.50;99.90;;;;;;5034718;28;20124;-84
2022/06/29 01:40:14;;;;;;;4.95;3.03;;;15.50;99.90;;;;;;5018122;28;20402;-85
2022/06/29 01:42:40;;;;;;;3.13;2.70;;;15.40;99.90;;;;;;5020843;28;20042;-84
2022/06/29 01:45:06;;;;;;;5.15;3.03;;;15.40;99.90;;;;;;5005367;28;20136;-85
2022/06/29 01:47:32;;;;;;;4.47;3.20;;;15.40;99.90;;;;;;5018468;28;20046;-85
2022/06/29 01:49:58;;;;;;;5.43;2.80;;;15.30;99.90;;;;;;5001617;28;20046;-84
2022/06/29 01:52:24;;;;;;;3.90;2.92;;;15.30;99.90;;;;;;4986603;28;20042;-84
2022/06/29 01:54:52;;;;;;;3.85;2.53;;;15.30;99.90;;;;;;5003887;28;20545;-85
2022/06/29 01:57:17;;;;;;;5.40;3.00;;;15.30;99.90;;;;;;5028296;28;20154;-84
2022/06/29 01:59:44;;;;;;;5.82;3.20;;;15.30;99.90;;;;;;5005342;28;20507;-84
2022/06/29 02:02:12;;;;;;;3.60;2.50;;;15.20;99.90;;;;;;5018747;28;20510;-84
2022/06/29 02:04:38;;;;;;;5.07;2.80;;;15.20;99.90;;;;;;5020578;28;20057;-84
2022/06/29 02:07:04;;;;;;;5.25;3.38;;;15.20;99.90;;;;;;5004966;28;20049;-84
2022/06/29 02:09:31;;;;;;;5.53;3.08;;;15.20;99.90;;;;;;5019069;28;20387;-84
2022/06/29 02:11:57;;;;;;;4.85;2.60;;;15.20;99.90;;;;;;4985427;28;20104;-83
2022/06/29 02:14:25;;;;;;;3.90;3.13;;;15.20;99.90;;;;;;4993408;28;20933;-84
2022/06/29 02:16:51;;;;;;;3.80;2.85;;;15.20;99.90;;;;;;5019663;28;20038;-84
2022/06/29 02:19:17;;;;;;;3.75;2.97;;;15.20;99.90;;;;;;4983949;28;20092;-84
2022/06/29 02:21:43;;;;;;;6.10;3.05;;;15.10;99.90;;;;;;5002826;28;20691;-84
2022/06/29 02:24:09;;;;;;;3.95;2.70;;;15.10;99.90;;;;;;4981962;28;20042;-84
2022/06/29 02:26:35;;;;;;;4.63;2.90;;;15.20;99.90;;;;;;5016403;28;20151;-84
2022/06/29 02:29:00;;;;;;;5.07;2.95;;;15.20;99.90;;;;;;4976803;28;20050;-84
2022/06/29 02:36:54;;;;;;;3.95;3.10;;;15.20;99.90;;;;;;5021440;28;20155;-85
2022/06/29 02:39:20;;;;;;;5.47;3.05;;;15.20;99.90;;;;;;4988121;28;20041;-85
2022/06/29 02:41:46;;;;;;;4.43;2.90;;;15.20;99.90;;;;;;5003753;28;20049;-84
2022/06/29 02:44:12;;;;;;;5.28;3.20;;;15.40;99.90;;;;;;5004960;28;20042;-84
2022/06/29 02:46:37;;;;;;;4.40;3.50;;;14.90;99.90;;;;;;4990359;28;20073;-84
2022/06/29 02:49:03;;;;;;;4.35;3.17;;;15.20;99.90;;;;;;5021691;28;20132;-84
2022/06/29 02:51:29;;;;;;;4.20;2.70;;;15.20;99.90;;;;;;4987675;28;20557;-85
2022/06/29 02:53:55;;;;;;;4.55;3.28;;;15.20;99.90;;;;;;5004384;28;20049;-83
2022/06/29 02:56:21;;;;;;;3.70;3.00;;;15.20;99.90;;;;;;5019621;28;20038;-84
2022/06/29 02:58:46;;;;;;;3.72;3.10;;;15.20;99.90;;;;;;5004710;28;20084;-84
2022/06/29 03:01:12;;;;;;;4.82;3.40;;;15.20;99.90;;;;;;5003143;28;20053;-83
2022/06/29 03:03:41;;;;;;;4.00;3.40;;;15.20;99.90;;;;;;5005272;28;20045;-84
2022/06/29 03:06:07;;;;;;;4.13;2.90;;;15.20;99.90;;;;;;5021326;28;20132;-85
2022/06/29 03:08:32;;;;;;;5.45;3.17;;;15.30;99.90;;;;;;4974738;28;20159;-85
2022/06/29 03:10:58;;;;;;;3.75;3.10;;;15.30;99.90;;;;;;5003852;28;20631;-84
2022/06/29 03:13:24;;;;;;;5.18;3.00;;;15.30;99.90;;;;;;5011291;28;20128;-84
2022/06/29 03:15:51;;;;;;;4.78;3.10;;;15.30;99.90;;;;;;5006054;28;20046;-83
2022/06/29 03:18:17;;;;;;;4.10;3.45;;;15.30;99.90;;;;;;5022198;28;20077;-84
2022/06/29 03:20:43;;;;;;;6.22;3.20;;;15.90;99.90;;;;;;4993338;28;20525;-83
2022/06/29 03:23:09;;;;;;;4.43;3.60;;;15.30;99.90;;;;;;5006460;28;20643;-84
2022/06/29 03:25:34;;;;;;;4.05;3.58;;;15.30;99.90;;;;;;5023622;28;20080;-84
2022/06/29 03:28:00;;;;;;;6.95;3.83;;;15.30;99.90;;;;;;5004796;28;20046;-84
2022/06/29 03:30:26;;;;;;;5.70;3.92;;;15.30;99.90;;;;;;4990000;28;20056;-85
2022/06/29 03:32:52;;;;;;;4.70;3.38;;;15.30;99.90;;;;;;5021341;28;22036;-84
2022/06/29 03:35:18;;;;;;;4.50;3.63;;;14.40;99.90;;;;;;5019137;28;20056;-84
2022/06/29 03:37:44;;;;;;;4.45;3.55;;;15.30;99.90;;;;;;5003196;28;20056;-83
2022/06/29 03:40:10;;;;;;;4.55;3.17;;;15.30;99.90;;;;;;5004984;28;20046;-84
2022/06/29 03:42:36;;;;;;;4.32;3.40;;;15.30;99.90;;;;;;4986753;28;20053;-84
2022/06/29 03:45:01;;;;;;;4.10;3.67;;;15.30;99.90;;;;;;4994305;28;20140;-83
2022/06/29 03:47:27;;;;;;;3.95;3.13;;;15.30;99.90;;;;;;5003722;28;20054;-84
2022/06/29 03:49:53;;;;;;;5.13;3.20;;;15.40;99.90;;;;;;5007326;28;20053;-85
2022/06/29 03:52:19;;;;;;;4.63;3.08;;;15.30;99.90;;;;;;5003260;28;20042;-84
2022/06/29 03:54:45;;;;;;;4.88;3.17;;;15.40;99.90;;;;;;5002807;28;20052;-84
2022/06/29 03:57:10;;;;;;;5.07;2.95;;;15.40;99.90;;;;;;5004481;28;20049;-86
2022/06/29 03:59:39;;;;;;;4.60;3.00;;;15.50;99.90;;;;;;5003882;28;20061;-85
2022/06/29 04:02:05;;;;;;;5.43;3.03;;;15.50;99.90;;;;;;5008027;28;20091;-88
2022/06/29 04:04:31;;;;;;;5.72;3.38;;;15.50;99.90;;;;;;5010416;28;20077;-91
2022/06/29 04:06:59;;;;;;;6.70;3.53;;;15.50;99.90;;;;;;5006417;28;20124;-88
2022/06/29 04:09:25;;;;;;;3.50;3.17;;;15.50;99.90;;;;;;5019839;28;20045;-86
2022/06/29 04:11:55;;;;;;;6.00;3.20;;;15.50;99.90;;;;;;5005843;28;20054;-84
2022/06/29 04:14:25;;;;;;;3.90;3.47;;;15.50;99.90;;;;;;5003559;28;20095;-84
2022/06/29 04:16:53;;;;;;;5.30;3.33;;;15.50;99.90;;;;;;5003059;28;20060;-85
2022/06/29 04:19:19;;;;;;;4.13;3.45;;;15.50;99.90;;;;;;5022681;28;20037;-86
2022/06/29 04:21:46;;;;;;;4.47;3.50;;;15.50;99.90;;;;;;5020150;28;20041;-85
2022/06/29 04:24:12;;;;;;;6.40;3.65;;;15.60;99.90;;;;;;5005433;28;20053;-85
2022/06/29 04:26:39;;;;;;;4.25;3.25;;;15.60;99.90;;;;;;5006556;28;20042;-85
2022/06/29 04:29:04;;;;;;;5.75;3.70;;;15.60;99.90;;;;;;5016611;28;20042;-84
2022/06/29 04:31:33;;;;;;;3.95;3.00;;;15.60;99.90;;;;;;5012075;28;20083;-86
2022/06/29 04:34:01;;;;;;;5.85;3.28;;;15.60;99.90;;;;;;5008505;28;20053;-84
2022/06/29 04:36:26;;;;;;;5.30;3.38;;;15.50;99.90;;;;;;5005290;28;20049;-85
2022/06/29 04:38:54;;;;;;;5.78;3.58;;;15.60;99.90;;;;;;5023168;28;20103;-85
2022/06/29 04:41:19;;;;;;;4.13;3.50;;;15.50;99.90;;;;;;4985420;28;20107;-85
2022/06/29 04:43:46;;;;;;;5.13;3.33;;;15.50;99.90;;;;;;4995580;28;20084;-85
2022/06/29 04:46:22;;;;;;;5.13;3.35;;;15.50;99.90;;;;;;5004882;28;20068;-85
2022/06/29 04:48:56;;;;;;;4.18;3.38;;;15.50;99.90;;;;;;5019793;28;20042;-85
2022/06/29 04:51:23;;;;;;;5.28;3.15;;;15.50;99.90;;;;;;5000706;28;20546;-85
2022/06/29 04:53:54;;;;;;;5.10;3.53;;;15.50;99.90;;;;;;5038147;28;20144;-86
2022/06/29 04:56:21;;;;;;;4.55;3.30;;;15.50;99.90;;;;;;5038540;28;20048;-85
2022/06/29 04:58:46;;;;;;;4.25;3.50;;;15.60;99.90;;;;;;5006580;28;20099;-85
2022/06/29 05:01:12;;;;;;;5.82;3.90;;;15.60;99.90;;;;;;5014596;28;20458;-86
2022/06/29 05:03:41;;;;;;;3.25;2.60;;;15.60;99.90;;;;;;5015030;28;20172;-84
2022/06/29 05:06:07;;;;;;;5.57;3.67;;;15.70;99.90;;;;;;4987562;28;20045;-87
2022/06/29 05:08:33;;;;;;;5.55;3.20;;;15.80;99.90;;;;;;5011173;28;20047;-86
2022/06/29 05:11:03;;;;;;;7.13;3.58;;;15.80;99.90;;;;;;5023921;28;22424;-86
2022/06/29 05:13:29;;;;;;;5.35;3.35;;;15.90;99.90;;;;;;4991032;28;20045;-86
2022/06/29 05:15:55;;;;;;;8.43;4.03;;;15.90;99.90;;;;;;5003391;28;20403;-86
2022/06/29 05:18:21;;;;;;;4.18;3.03;;;16.00;99.90;;;;;;5002464;28;20049;-84
2022/06/29 05:20:47;;;;;;;6.22;3.53;;;16.10;99.90;;;;;;5000854;28;20045;-86
2022/06/29 05:23:13;;;;;;;4.45;3.13;;;15.20;99.90;;;;;;5003284;28;20049;-86
2022/06/29 05:25:39;;;;;;;3.92;3.35;;;16.20;99.90;;;;;;5002210;28;20561;-86
2022/06/29 05:28:06;;;;;;;4.78;3.55;;;16.30;99.90;;;;;;5006145;28;20057;-86
2022/06/29 05:30:34;;;;;;;4.45;3.00;;;16.40;99.90;;;;;;5018898;28;20774;-86
2022/06/29 05:33:01;;;;;;;4.68;3.00;;;16.50;99.90;;;;;;5003206;28;20055;-86
2022/06/29 05:35:29;;;;;;;3.78;3.38;;;16.30;99.90;;;;;;5015749;28;20435;-85
2022/06/29 05:37:55;;;;;;;3.63;2.80;;;16.70;99.90;;;;;;5000081;28;20111;-85
2022/06/29 05:40:21;;;;;;;4.03;2.90;;;16.80;99.90;;;;;;5018973;28;20050;-83
2022/06/29 05:42:58;;;;;;;4.82;3.50;;;16.90;99.90;;;;;;5003955;28;20152;-93
2022/06/29 05:45:49;;;;;;;;;;;;;;;;;;;;;
2022/06/29 07:22:42;;;;;;;;;;;;;;;;;;;;;
2022/06/29 07:25:57;;;;;;;3.00;1.80;;;21.50;99.90;;;;;;5027948;28;20149;-93
2022/06/29 07:33:13;;;;;;;;;;;;;;;;;;;;;
2022/06/29 07:36:02;;;;;;;;;;;;;;;;;;;;;
2022/06/29 07:39:57;;;;;;;;;;;;;;;;;;;;;
2022/06/29 07:43:14;;;;;;;3.70;1.60;;;22.60;99.90;;;;;;4997075;28;20042;-93
2022/06/29 07:53:34;;;;;;;;;;;;;;;;;;;;;
2022/06/29 07:56:36;;;;;;;;;;;;;;;;;;;;;
2022/06/29 07:59:42;;;;;;;;;;;;;;;;;;;;;
2022/06/29 08:02:48;;;;;;;1.83;1.30;;;24.00;99.90;;;;;;5057285;28;20070;-90
2022/06/29 08:05:50;;;;;;;;;;;;;;;;;;;;;
2022/06/29 08:12:17;;;;;;;3.53;1.83;;;24.30;99.90;;;;;;5040118;28;20477;-90
2022/06/29 08:15:08;;;;;;;2.75;1.20;;;24.50;99.90;;;;;;5037308;28;20052;-91
2022/06/29 08:18:49;;;;;;;;;;;;;;;;;;;;;
2022/06/29 08:22:01;;;;;;;;;;;;;;;;;;;;;
2022/06/29 08:24:28;;;;;;;7.45;2.42;;;25.80;99.90;;;;;;5064372;28;20065;-89
2022/06/29 08:37:19;;;;;;;;;;;;;;;;;;;;;
2022/06/29 08:40:23;;;;;;;;;;;;;;;;;;;;;
2022/06/29 08:49:50;;;;;;;;;;;;;;;;;;;;;
2022/06/29 08:53:27;;;;;;;;;;;;;;;;;;;;;
2022/06/29 08:56:36;;;;;;;;;;;;;;;;;;;;;
2022/06/29 08:59:50;;;;;;;2.60;1.23;;;26.80;98.70;;;;;;5043255;28;20041;-92
2022/06/29 09:02:29;;;;;;;;;;;;;;;;;;;;;
2022/06/29 09:05:18;;;;;;;4.07;1.20;;;27.00;98.80;;;;;;5048369;28;20144;-92
2022/06/29 09:08:43;;;;;;;;;;;;;;;;;;;;;
2022/06/29 09:12:10;;;;;;;;;;;;;;;;;;;;;
2022/06/29 09:44:13;;;;;;;1.77;1.00;;;28.00;94.20;;;;;;4946533;27;4069083;-89
2022/06/29 09:46:59;;;;;;;;;;;;;;;;;;;;;
2022/06/29 09:50:02;;;;;;;;;;;;;;;;;;;;;
2022/06/29 09:52:46;;;;;;;1.98;1.10;;;28.90;91.10;;;;;;5081712;28;20048;-87
2022/06/29 09:55:45;;;;;;;2.63;1.08;;;29.20;91.90;;;;;;5074168;28;20070;-87
2022/06/29 10:06:04;;;;;;;;;;;;;;;;;;;;;
2022/06/29 10:08:17;;;;;;;1.83;1.17;;;29.50;90.70;;;;;;5074308;28;20052;-90
2022/06/29 10:10:48;;;;;;;2.25;1.15;;;29.70;90.40;;;;;;5069974;28;20040;-90
2022/06/29 10:13:41;;;;;;;6.82;1.63;;;29.70;90.80;;;;;;5082677;28;20089;-91
2022/06/29 10:16:50;;;;;;;2.17;1.20;;;29.80;88.10;;;;;;5079058;28;20095;-92
2022/06/29 10:23:04;;;;;;;2.63;1.15;;;29.60;87.20;;;;;;4976778;28;20086;-91
2022/06/29 10:25:44;;;;;;;10.60;2.55;;;29.70;88.50;;;;;;4956156;28;20502;-90
2022/06/29 10:28:33;;;;;;;;;;;;;;;;;;;;;
2022/06/29 10:33:46;;;;;;;1.80;1.08;;;30.00;87.40;;;;;;5079046;28;20048;-92
2022/06/29 10:37:01;;;;;;;2.97;1.42;;;30.10;87.80;;;;;;5066459;28;20489;-93
2022/06/29 10:40:31;;;;;;;;;;;;;;;;;;;;;
2022/06/29 10:43:33;;;;;;;;;;;;;;;;;;;;;
2022/06/29 10:46:30;;;;;;;1.50;0.82;;;29.70;80.80;;;;;;5088173;28;19924;-92
2022/06/29 10:49:24;;;;;;;1.65;0.90;;;29.60;80.90;;;;;;5055197;28;20079;-91
2022/06/29 10:52:23;;;;;;;1.05;0.60;;;29.70;81.50;;;;;;5053462;28;20048;-93
2022/06/29 10:55:25;;;;;;;;;;;;;;;;;;;;;
2022/06/29 10:58:27;;;;;;;;;;;;;;;;;;;;;
2022/06/29 11:01:28;;;;;;;;;;;;;;;;;;;;;
2022/06/29 11:04:53;;;;;;;3.42;1.10;;;29.60;81.10;;;;;;5074091;28;20044;-93
2022/06/29 11:13:55;;;;;;;1.77;1.00;;;30.60;78.30;;;;;;5059895;28;20049;-91
2022/06/29 11:16:55;;;;;;;1.75;1.00;;;31.10;77.60;;;;;;5065249;28;20115;-91
2022/06/29 11:20:02;;;;;;;;;;;;;;;;;;;;;
2022/06/29 11:26:19;;;;;;;3.17;0.90;;;31.10;71.70;;;;;;5073441;28;20527;-91
2022/06/29 11:29:37;;;;;;;;;;;;;;;;;;;;;
2022/06/29 11:32:29;;;;;;;1.60;0.85;;;31.30;71.50;;;;;;5077334;28;20040;-92
2022/06/29 11:35:08;;;;;;;1.65;0.85;;;31.50;71.80;;;;;;5058588;28;20044;-91
2022/06/29 11:38:01;;;;;;;8.57;2.53;;;31.40;70.90;;;;;;5024153;28;20044;-91
2022/06/29 11:41:20;;;;;;;5.18;1.52;;;31.40;70.00;;;;;;5047637;28;20053;-92
2022/06/29 11:45:06;;;;;;;;;;;;;;;;;;;;;
2022/06/29 11:48:24;;;;;;;1.70;0.93;;;31.90;69.20;;;;;;5014491;28;20045;-92
2022/06/29 11:51:09;;;;;;;1.48;0.95;;;31.80;67.60;;;;;;5053487;28;20059;-91
2022/06/29 11:56:54;;;;;;;4.85;1.50;;;32.00;65.90;;;;;;5071871;28;20112;-92
2022/06/29 12:03:09;;;;;;;3.58;1.15;;;32.70;64.50;;;;;;5081386;28;20045;-91
2022/06/29 12:09:04;;;;;;;2.60;1.10;;;32.50;61.80;;;;;;5039337;28;20037;-92
2022/06/29 12:12:11;;;;;;;1.73;0.80;;;32.40;62.50;;;;;;5044502;28;20459;-91
2022/06/29 12:15:17;;;;;;;2.47;0.90;;;32.30;63.20;;;;;;5054604;28;20049;-91
2022/06/29 12:17:48;;;;;;;1.13;0.80;;;32.60;64.50;;;;;;5055641;28;20037;-91
2022/06/29 13:24:07;;;;;;;2.40;1.00;;;32.40;59.50;;;;;;4931426;27;5553389;-88
2022/06/29 13:26:46;;;;;;;;;;;;;;;;;;;;;
2022/06/29 13:29:39;;;;;;;;;;;;;;;;;;;;;
2022/06/29 13:32:40;;;;;;;2.15;0.93;;;33.10;56.30;;;;;;5132653;27;20522;-87
2022/06/29 13:35:09;;;;;;;2.60;0.98;;;33.00;56.60;;;;;;5124951;27;20069;-88
2022/06/29 13:37:51;;;;;;;;;;;;;;;;;;;;;
2022/06/29 13:40:22;;;;;;;2.50;0.80;;;32.60;57.00;;;;;;5117820;27;20059;-88
2022/06/29 13:45:43;;;;;;;3.92;0.82;;;32.10;57.80;;;;;;5138730;27;20054;-87
2022/06/29 13:48:28;;;;;;;1.92;0.88;;;31.80;58.20;;;;;;5107844;27;20039;-87
2022/06/29 13:51:22;;;;;;;2.50;1.00;;;31.70;58.20;;;;;;5092212;27;20065;-88
2022/06/29 13:54:09;;;;;;;2.33;0.90;;;31.50;59.10;;;;;;5110790;27;20055;-88
2022/06/29 13:56:50;;;;;;;1.85;0.85;;;31.60;60.10;;;;;;5094736;27;20043;-88
2022/06/29 13:59:19;;;;;;;2.88;1.00;;;31.70;59.50;;;;;;5122475;27;20083;-88
2022/06/29 14:02:08;;;;;;;1.73;0.80;;;31.70;59.50;;;;;;5107609;27;20047;-88
2022/06/29 14:04:39;;;;;;;1.92;0.80;;;32.00;59.50;;;;;;5124278;27;20036;-90
2022/06/29 14:07:52;;;;;;;1.67;1.00;;;31.60;59.10;;;;;;5121866;27;20038;-93
2022/06/29 14:11:07;;;;;;;;;;;;;;;;;;;;;
2022/06/29 14:17:30;;;;;;;;;;;;;;;;;;;;;
2022/06/29 14:20:19;;;;;;;1.38;0.75;;;32.10;58.40;;;;;;5092391;28;20048;-92
2022/06/29 14:23:06;;;;;;;;;;;;;;;;;;;;;
2022/06/29 14:25:51;;;;;;;;;;;;;;;;;;;;;
2022/06/29 14:28:20;;;;;;;2.45;0.90;;;32.20;57.30;;;;;;5080982;28;20038;-91
2022/06/29 14:30:59;;;;;;;;;;;;;;;;;;;;;
2022/06/29 14:33:29;;;;;;;4.57;0.93;;;32.40;57.50;;;;;;5077364;28;20073;-89
2022/06/29 14:35:57;;;;;;;1.45;0.82;;;32.60;57.20;;;;;;5094031;28;20045;-87
2022/06/29 14:38:23;;;;;;;3.72;0.80;;;32.80;56.90;;;;;;5060091;28;20049;-85
2022/06/29 14:40:49;;;;;;;1.55;0.80;;;33.00;57.10;;;;;;5076413;28;20502;-85
2022/06/29 14:43:15;;;;;;;1.83;0.90;;;33.10;56.80;;;;;;5069989;28;20041;-85
2022/06/29 14:45:44;;;;;;;3.00;0.90;;;33.30;56.30;;;;;;5074274;28;20565;-90
2022/06/29 14:48:09;;;;;;;1.67;0.85;;;33.20;56.00;;;;;;5072290;28;20038;-89
2022/06/29 14:50:59;;;;;;;;;;;;;;;;;;;;;
2022/06/29 14:53:40;;;;;;;0.93;0.70;;;33.80;55.30;;;;;;5073433;28;20074;-91
2022/06/29 14:56:24;;;;;;;;;;;;;;;;;;;;;
2022/06/29 15:02:32;;;;;;;1.63;0.68;;;33.90;54.90;;;;;;5081032;27;20177;-89
2022/06/29 15:05:23;;;;;;;2.75;0.85;;;34.20;53.20;;;;;;5075376;28;20103;-89
2022/06/29 15:07:54;;;;;;;3.20;0.80;;;34.00;53.70;;;;;;5081212;28;20045;-87
2022/06/29 15:10:33;;;;;;;;;;;;;;;;;;;;;
2022/06/29 15:13:11;;;;;;;2.65;0.80;;;33.70;54.00;;;;;;5091535;28;20067;-88
2022/06/29 15:16:01;;;;;;;3.35;2.00;;;33.60;54.40;;;;;;5070467;28;20399;-90
2022/06/29 15:18:40;;;;;;;1.75;1.02;;;33.60;55.20;;;;;;5060165;28;20106;-88
2022/06/29 15:21:43;;;;;;;3.53;0.95;;;33.60;54.90;;;;;;5076890;28;20050;-89
2022/06/29 15:24:15;;;;;;;1.80;1.17;;;33.40;54.60;;;;;;5062655;28;20053;-90
2022/06/29 15:26:46;;;;;;;2.47;1.00;;;33.10;55.10;;;;;;5068852;28;20170;-90
2022/06/29 15:29:23;;;;;;;2.47;1.10;;;32.90;55.80;;;;;;5086566;28;20041;-89
2022/06/29 15:32:00;;;;;;;2.78;1.00;;;32.70;55.60;;;;;;5067672;28;20077;-89
2022/06/29 15:40:42;;;;;;;;;;;;;;;;;;;;;
2022/06/29 15:43:13;;;;;;;6.13;4.03;;;31.50;64.30;;;;;;5090436;28;20050;-89
2022/06/29 15:45:43;;;;;;;6.47;4.57;;;31.00;67.40;;;;;;5070764;28;20037;-90
2022/06/29 15:48:28;;;;;;;4.93;3.80;;;30.70;69.60;;;;;;5058402;28;20059;-88
2022/06/29 15:51:13;;;;;;;;;;;;;;;;;;;;;
2022/06/29 15:56:33;;;;;;;5.38;4.25;;;30.00;75.90;;;;;;5075870;28;20053;-89
2022/06/29 15:59:18;;;;;;;;;;;;;;;;;;;;;
2022/06/29 16:01:57;;;;;;;;;;;;;;;;;;;;;
2022/06/29 16:04:29;;;;;;;6.95;4.78;;;29.30;84.90;;;;;;5089087;28;20046;-88
2022/06/29 16:10:28;;;;;;;6.18;3.83;;;28.90;90.50;;;;;;5080008;28;20061;-89
2022/06/29 16:13:00;;;;;;;5.07;3.65;;;29.20;90.50;;;;;;5018716;28;20049;-86
2022/06/29 16:15:31;;;;;;;5.38;4.03;;;29.40;90.50;;;;;;5073495;28;20061;-88
2022/06/29 16:18:06;;;;;;;4.93;3.38;;;29.30;91.00;;;;;;5061871;28;20474;-88
2022/06/29 16:20:35;;;;;;;5.68;4.13;;;29.40;91.80;;;;;;5087516;28;20062;-89
2022/06/29 16:23:03;;;;;;;6.82;4.35;;;29.30;91.90;;;;;;5052484;28;20093;-89
2022/06/29 16:25:31;;;;;;;6.97;4.40;;;29.10;91.80;;;;;;5077508;28;20045;-89
2022/06/29 16:28:00;;;;;;;7.13;3.88;;;28.90;92.30;;;;;;5060083;28;20049;-87
2022/06/29 16:30:36;;;;;;;5.75;4.20;;;28.70;92.20;;;;;;5068843;28;20077;-88
2022/06/29 16:33:04;;;;;;;4.85;4.07;;;28.60;93.20;;;;;;5082603;28;20195;-88
2022/06/29 16:35:48;;;;;;;4.47;3.25;;;28.50;93.50;;;;;;5061299;28;20061;-87
2022/06/29 16:38:19;;;;;;;5.75;4.72;;;28.40;94.30;;;;;;5081013;28;20133;-89
2022/06/29 16:40:47;;;;;;;5.82;4.45;;;28.30;95.10;;;;;;5080121;28;20053;-89
2022/06/29 16:43:15;;;;;;;6.88;4.30;;;28.30;95.20;;;;;;5073956;28;20041;-88
2022/06/29 16:45:43;;;;;;;5.55;3.90;;;27.90;94.90;;;;;;5080968;28;20078;-88
2022/06/29 16:48:27;;;;;;;6.53;4.80;;;28.20;94.80;;;;;;5063107;28;20061;-87
2022/06/29 16:50:53;;;;;;;6.85;4.28;;;28.10;95.60;;;;;;5068288;28;20512;-87
2022/06/29 16:53:24;;;;;;;6.90;4.25;;;28.00;95.60;;;;;;5059107;28;20042;-89
2022/06/29 16:55:54;;;;;;;5.22;4.70;;;27.70;95.80;;;;;;5075664;28;20046;-88
2022/06/29 16:58:25;;;;;;;5.78;3.88;;;27.70;96.10;;;;;;5063435;28;20110;-88
2022/06/29 17:00:54;;;;;;;5.93;4.25;;;27.70;96.40;;;;;;5076718;28;20140;-88
2022/06/29 17:03:20;;;;;;;5.03;3.20;;;27.50;96.40;;;;;;5084365;28;20045;-89
2022/06/29 17:05:48;;;;;;;7.10;3.78;;;27.30;96.80;;;;;;5094676;28;20049;-88
2022/06/29 17:08:23;;;;;;;7.68;3.90;;;27.10;96.90;;;;;;5097596;28;20045;-88
2022/06/29 17:10:56;;;;;;;5.72;3.88;;;27.00;96.60;;;;;;5094890;28;20042;-88
2022/06/29 17:13:31;;;;;;;5.80;2.80;;;26.90;96.50;;;;;;5080585;28;20053;-90
2022/06/29 17:16:41;;;;;;;4.82;3.35;;;26.80;96.80;;;;;;5082849;28;20049;-90
2022/06/29 17:19:24;;;;;;;4.10;3.30;;;26.80;96.70;;;;;;5027015;28;20065;-89
2022/06/29 17:21:50;;;;;;;6.88;3.22;;;26.60;96.40;;;;;;5083420;28;20618;-89
2022/06/29 17:24:24;;;;;;;7.10;3.97;;;26.50;96.60;;;;;;5075512;28;20134;-89
2022/06/29 17:26:57;;;;;;;5.22;3.55;;;26.50;96.80;;;;;;5080348;28;20054;-92
2022/06/29 17:29:26;;;;;;;5.05;2.50;;;26.20;97.30;;;;;;5074883;28;20047;-91
2022/06/29 17:32:19;;;;;;;7.10;3.50;;;26.20;97.30;;;;;;5051198;28;20038;-92
2022/06/29 17:35:06;;;;;;;6.50;3.97;;;26.20;97.80;;;;;;5093973;28;20433;-90
2022/06/29 17:37:42;;;;;;;;;;;26.10;98.50;;;;;;5093642;28;20069;-90
2022/06/29 17:40:11;;;;;;;6.83;5.87;;;26.00;99.90;;;;;;5081781;28;19919;-90
2022/06/29 17:42:52;;;;;;;6.78;5.82;;;26.10;99.90;;;;;;5109243;28;20040;-93
2022/06/29 17:45:23;;;;;;;6.93;6.22;;;25.70;99.90;;;;;;5090520;28;20048;-93
2022/06/29 17:48:13;;;;;;;5.93;5.13;;;25.70;99.90;;;;;;5076805;28;20117;-94
2022/06/29 17:50:56;;;;;;;;;;;;;;;;;;;;;
2022/06/29 17:53:33;;;;;;;7.50;5.70;;;25.50;99.90;;;;;;5058359;28;20056;-95
2022/06/29 17:56:07;;;;;;;7.25;5.93;;;25.40;99.90;;;;;;5038806;28;20406;-92
2022/06/29 17:58:39;;;;;;;7.78;5.82;;;25.30;99.90;;;;;;5074959;28;20044;-92
2022/06/29 18:01:21;;;;;;;8.02;6.53;;;25.10;99.90;;;;;;5080524;27;20044;-91
2022/06/29 18:04:36;;;;;;;6.63;5.68;;;25.10;99.90;;;;;;5064889;28;20039;-93
2022/06/29 18:07:11;;;;;;;9.15;6.38;;;25.00;99.90;;;;;;5077172;28;20120;-93
2022/06/29 18:09:44;;;;;;;8.52;6.80;;;24.90;99.90;;;;;;5069972;28;20039;-95
2022/06/29 18:12:27;;;;;;;7.10;6.18;;;24.70;99.90;;;;;;5099589;28;20036;-96
2022/06/29 18:14:55;;;;;;;8.82;6.32;;;24.60;99.90;;;;;;5095443;28;20036;-92
2022/06/29 18:17:23;;;;;;;7.10;6.05;;;24.20;99.90;;;;;;5084674;28;20053;-92
2022/06/29 18:19:50;;;;;;;5.80;5.07;;;24.40;99.90;;;;;;5089590;27;20052;-93
2022/06/29 18:22:50;;;;;;;6.53;4.88;;;24.30;99.90;;;;;;5110303;28;20046;-91
2022/06/29 18:25:19;;;;;;;6.32;5.13;;;24.70;99.90;;;;;;5097338;28;20050;-90
2022/06/29 18:27:47;;;;;;;8.18;5.20;;;24.10;99.90;;;;;;5067825;28;20496;-89
2022/06/29 18:30:14;;;;;;;5.10;4.38;;;23.70;99.90;;;;;;5098105;27;21330;-86
2022/06/29 18:32:43;;;;;;;6.15;5.05;;;24.10;99.90;;;;;;5066009;28;20033;-84
2022/06/29 18:35:09;;;;;;;6.90;5.07;;;24.00;99.90;;;;;;5052090;28;20056;-84
2022/06/29 18:37:34;;;;;;;7.47;5.32;;;24.00;99.90;;;;;;5067999;28;20049;-84
2022/06/29 18:40:01;;;;;;;7.90;5.90;;;23.90;99.90;;;;;;5069724;28;20054;-85
2022/06/29 18:42:27;;;;;;;7.70;6.35;;;23.90;99.90;;;;;;5066673;28;20048;-85
2022/06/29 18:44:53;;;;;;;7.72;5.43;;;23.90;99.90;;;;;;5065756;28;20053;-84
2022/06/29 18:47:20;;;;;;;7.47;6.18;;;23.80;99.90;;;;;;5093015;27;20049;-86
2022/06/29 18:49:45;;;;;;;6.05;5.45;;;23.70;99.90;;;;;;5056233;28;20057;-85
2022/06/29 18:52:11;;;;;;;5.63;5.00;;;23.60;99.90;;;;;;5069161;28;20221;-86
2022/06/29 18:54:38;;;;;;;6.97;5.47;;;23.60;99.90;;;;;;5062302;28;20133;-85
2022/06/29 18:57:04;;;;;;;6.97;5.18;;;23.60;99.90;;;;;;5063802;28;20053;-84
2022/06/29 18:59:29;;;;;;;5.68;4.38;;;23.50;99.90;;;;;;5059310;28;20553;-85
2022/06/29 19:01:55;;;;;;;5.55;4.30;;;23.50;99.90;;;;;;5070492;28;20041;-86
2022/06/29 19:04:21;;;;;;;5.82;4.78;;;23.40;99.90;;;;;;5053984;28;20058;-85
2022/06/29 19:06:47;;;;;;;7.57;5.22;;;23.40;99.90;;;;;;5084481;27;20105;-83
2022/06/29 19:09:17;;;;;;;6.10;4.95;;;23.40;99.90;;;;;;5067368;28;20045;-84
2022/06/29 19:11:55;;;;;;;7.88;4.55;;;23.40;99.90;;;;;;5049265;28;20489;-84
2022/06/29 19:14:25;;;;;;;5.13;4.03;;;23.20;99.90;;;;;;5074661;28;20157;-83